Terminal Aerodrome Forecast
Issued by NWS Jackson, MS

Home | Current Version | Previous Version | Text Only | Print | Product List | Glossary On
Versions: 1 2 3 4 5 6 7 8 9 10 11 12 13 14 15 16 17 18 19 20
002
FTUS44 KMEG 192135 AAA
TAFTUP
TAF AMD
KTUP 192135Z 1922/2018 20005KT 6SM -SHRA FEW010 OVC060
     FM200300 20005KT 4SM -SHRA BR OVC005
     FM200600 20004KT 2SM -DZ BR OVC004
     FM201500 22007KT 6SM BR BKN008=

USA.gov is the U.S. government's official web portal to all federal, state and local government web resources and services.